createdAt,value
2023-03-06T00:00:48.508Z,90.30
2023-03-06T00:03:15.303Z,90.12
2023-03-06T00:05:42.177Z,90.41
2023-03-06T00:08:08.933Z,90.28
2023-03-06T00:10:35.591Z,90.55
2023-03-06T00:13:04.807Z,90.60
2023-03-06T00:15:31.799Z,90.31
2023-03-06T00:17:58.995Z,90.59
2023-03-06T00:20:26.901Z,90.43
2023-03-06T00:22:55.869Z,90.51
2023-03-06T00:25:22.696Z,90.38
2023-03-06T00:27:49.801Z,90.16
2023-03-06T00:30:19.376Z,90.58
2023-03-06T00:32:45.981Z,90.15
2023-03-06T00:35:13.139Z,90.35
2023-03-06T00:37:40.640Z,90.43
2023-03-06T00:40:13.546Z,90.56
2023-03-06T00:42:40.191Z,90.44
2023-03-06T00:45:07.356Z,90.09
2023-03-06T00:47:33.997Z,89.79
2023-03-06T00:50:00.569Z,90.14
2023-03-06T00:52:27.181Z,89.59
2023-03-06T00:54:53.733Z,89.89
2023-03-06T00:57:20.247Z,90.44
2023-03-06T00:59:46.838Z,90.24
2023-03-06T01:02:13.628Z,90.47
2023-03-06T01:04:40.264Z,90.23
2023-03-06T01:07:06.798Z,90.09
2023-03-06T01:09:33.427Z,90.18
2023-03-06T01:12:00.448Z,90.38
2023-03-06T01:14:27.835Z,90.06
2023-03-06T01:16:54.526Z,90.24
2023-03-06T01:19:21.204Z,90.17
2023-03-06T01:21:47.740Z,89.27
2023-03-06T01:24:14.300Z,88.78
2023-03-06T01:26:40.827Z,89.41
2023-03-06T01:29:07.425Z,90.22
2023-03-06T01:31:34.265Z,90.23
2023-03-06T01:34:00.857Z,90.33
2023-03-06T01:36:27.344Z,90.56
2023-03-06T01:38:53.870Z,90.51
2023-03-06T01:41:21.491Z,90.49
2023-03-06T01:43:48.542Z,90.39
2023-03-06T01:46:42.153Z,91.15
2023-03-06T01:49:36.609Z,90.96
2023-03-06T01:52:18.265Z,90.70
2023-03-06T01:54:59.248Z,91.04
2023-03-06T01:57:30.483Z,90.59
2023-03-06T02:00:06.963Z,89.61
2023-03-06T02:02:42.098Z,90.43
2023-03-06T02:05:08.932Z,89.58
2023-03-06T02:07:37.249Z,90.46
2023-03-06T02:10:05.811Z,90.60
2023-03-06T02:12:32.740Z,90.48
2023-03-06T02:14:59.585Z,90.52
2023-03-06T02:17:27.790Z,90.79
2023-03-06T02:20:09.609Z,91.53
2023-03-06T02:23:05.437Z,91.00
2023-03-06T02:25:40.205Z,90.94
2023-03-06T02:28:09.919Z,90.66
2023-03-06T02:30:37.564Z,90.57
2023-03-06T02:33:05.337Z,90.72
2023-03-06T02:35:35.672Z,89.63
2023-03-06T02:38:13.536Z,91.19
2023-03-06T02:40:43.796Z,90.76
2023-03-06T02:43:13.067Z,90.18
2023-03-06T02:45:45.179Z,90.77
2023-03-06T02:48:13.290Z,90.89
2023-03-06T02:50:40.769Z,90.07
2023-03-06T02:53:08.286Z,89.59
2023-03-06T02:55:35.410Z,90.51
2023-03-06T02:58:02.281Z,90.53
2023-03-06T03:00:30.385Z,90.74
2023-03-06T03:02:57.402Z,91.40
2023-03-06T03:05:24.456Z,91.13
2023-03-06T03:07:57.569Z,91.28
2023-03-06T03:10:24.846Z,91.47
2023-03-06T03:12:51.628Z,91.18
2023-03-06T03:15:19.412Z,91.01
2023-03-06T03:17:45.958Z,90.29
2023-03-06T03:20:16.040Z,90.74
2023-03-06T03:22:43.008Z,90.88
2023-03-06T03:25:09.958Z,91.42
2023-03-06T03:27:36.728Z,91.41
2023-03-06T03:30:04.685Z,90.71
2023-03-06T03:32:31.326Z,90.79
2023-03-06T03:34:58.309Z,90.92
2023-03-06T03:37:25.903Z,90.80
2023-03-06T03:39:53.589Z,90.70
2023-03-06T03:42:20.175Z,90.41
2023-03-06T03:44:46.790Z,90.62
2023-03-06T03:47:13.612Z,90.28
2023-03-06T03:49:40.954Z,90.22
2023-03-06T03:52:07.728Z,90.33
2023-03-06T03:54:35.895Z,89.92
2023-03-06T03:57:02.430Z,90.17
2023-03-06T03:59:33.102Z,89.54
2023-03-06T04:02:10.768Z,90.18
2023-03-06T04:04:46.183Z,90.76
2023-03-06T04:07:13.291Z,90.71
2023-03-06T04:09:40.340Z,91.14
2023-03-06T04:12:07.944Z,91.17
2023-03-06T04:14:36.381Z,91.42
2023-03-06T04:17:03.558Z,90.41
2023-03-06T04:19:30.207Z,91.07
2023-03-06T04:21:57.548Z,91.78
2023-03-06T04:24:24.937Z,91.99
2023-03-06T04:26:52.261Z,91.19
2023-03-06T04:29:18.785Z,90.83
2023-03-06T04:31:45.751Z,91.97
2023-03-06T04:34:12.626Z,92.57
2023-03-06T04:36:44.984Z,93.08
2023-03-06T04:39:13.740Z,93.04
2023-03-06T04:41:41.421Z,92.76
2023-03-06T04:44:08.588Z,93.21
2023-03-06T04:46:35.885Z,93.55
2023-03-06T04:49:02.406Z,92.89
2023-03-06T04:51:29.472Z,93.53
2023-03-06T04:53:56.093Z,94.01
2023-03-06T04:56:23.242Z,94.34
2023-03-06T04:58:49.814Z,94.60
2023-03-06T05:01:16.386Z,94.68
2023-03-06T05:03:43.037Z,94.59
2023-03-06T05:06:09.588Z,94.14
2023-03-06T05:08:36.462Z,94.43
2023-03-06T05:11:03.253Z,94.93
2023-03-06T05:13:30.094Z,94.97
2023-03-06T05:16:04.852Z,95.26
2023-03-06T05:18:32.147Z,95.25
2023-03-06T05:20:59.918Z,95.24
2023-03-06T05:23:31.040Z,95.64
2023-03-06T05:25:58.139Z,94.84
2023-03-06T05:28:25.894Z,95.03
2023-03-06T05:30:52.532Z,95.13
2023-03-06T05:33:19.089Z,95.41
2023-03-06T05:35:47.371Z,95.35
2023-03-06T05:38:15.590Z,95.26
2023-03-06T05:40:44.007Z,94.53
2023-03-06T05:43:11.877Z,93.63
2023-03-06T05:45:39.558Z,93.76
2023-03-06T05:48:07.004Z,94.35
2023-03-06T05:50:33.552Z,94.88
2023-03-06T05:53:00.442Z,94.20
2023-03-06T05:55:26.970Z,94.52
2023-03-06T05:57:53.924Z,94.79
2023-03-06T06:00:21.300Z,94.50
2023-03-06T06:02:47.827Z,94.22
2023-03-06T06:05:14.721Z,93.65
2023-03-06T06:07:42.142Z,95.13
2023-03-06T06:10:12.204Z,95.80
2023-03-06T06:12:38.814Z,95.01
2023-03-06T06:15:06.537Z,95.47
2023-03-06T06:17:33.119Z,94.95
2023-03-06T06:19:59.645Z,94.29
2023-03-06T06:22:26.154Z,94.32
2023-03-06T06:24:52.725Z,95.16
2023-03-06T06:27:19.252Z,95.89
2023-03-06T06:29:45.804Z,96.13
2023-03-06T06:32:12.324Z,96.37
2023-03-06T06:34:38.827Z,96.05
2023-03-06T06:37:05.474Z,96.13
2023-03-06T06:39:31.969Z,96.30
2023-03-06T06:42:20.828Z,96.72
2023-03-06T06:44:45.031Z,96.94
2023-03-06T06:47:23.058Z,96.77
2023-03-06T06:49:52.672Z,96.97
2023-03-06T06:52:19.801Z,96.17
2023-03-06T06:54:46.443Z,95.91
2023-03-06T06:57:13.195Z,96.39
2023-03-06T06:59:39.751Z,97.16
2023-03-06T07:02:06.408Z,96.68
2023-03-06T07:04:33.113Z,96.91
2023-03-06T07:06:59.900Z,97.15
2023-03-06T07:09:26.548Z,97.64
2023-03-06T07:11:53.170Z,97.19
2023-03-06T07:14:19.728Z,97.36
2023-03-06T07:16:46.313Z,97.67
2023-03-06T07:19:12.876Z,96.99
2023-03-06T07:21:39.427Z,97.65
2023-03-06T07:24:06.146Z,97.77
2023-03-06T07:26:34.579Z,97.74
2023-03-06T07:29:01.710Z,98.08
2023-03-06T07:31:28.535Z,97.21
2023-03-06T07:33:55.251Z,97.65
2023-03-06T07:36:23.118Z,98.13
2023-03-06T07:38:49.832Z,98.17
2023-03-06T07:41:17.088Z,98.22
2023-03-06T07:43:45.046Z,98.53
2023-03-06T07:46:14.066Z,98.47
2023-03-06T07:48:41.728Z,98.51
2023-03-06T07:51:15.116Z,99.11
2023-03-06T07:53:41.657Z,98.68
2023-03-06T07:56:09.176Z,98.44
2023-03-06T07:58:38.002Z,98.74
2023-03-06T08:01:06.322Z,98.93
2023-03-06T08:03:33.330Z,98.94
2023-03-06T08:06:11.591Z,99.74
2023-03-06T08:08:39.887Z,99.13
2023-03-06T08:11:08.226Z,99.33
2023-03-06T08:13:35.377Z,98.76
2023-03-06T08:16:02.566Z,99.00
2023-03-06T08:18:29.291Z,97.99
2023-03-06T08:21:04.146Z,97.39
2023-03-06T08:23:30.727Z,97.55
2023-03-06T08:25:59.326Z,98.49
2023-03-06T08:28:26.116Z,98.83
2023-03-06T08:30:52.611Z,98.81
2023-03-06T08:33:19.166Z,98.61
2023-03-06T08:35:45.772Z,98.47
2023-03-06T08:38:12.392Z,98.80
2023-03-06T08:40:38.946Z,98.64
2023-03-06T08:43:05.522Z,98.96
2023-03-06T08:45:32.112Z,98.74
2023-03-06T08:47:58.669Z,98.56
2023-03-06T08:50:25.184Z,98.89
2023-03-06T08:52:51.695Z,98.02
2023-03-06T08:55:18.301Z,98.63
2023-03-06T08:57:45.778Z,99.01
2023-03-06T09:00:13.898Z,98.26
2023-03-06T09:02:40.648Z,98.20
2023-03-06T09:05:08.714Z,97.73
2023-03-06T09:07:35.588Z,98.07
2023-03-06T09:10:02.156Z,96.76
2023-03-06T09:12:30.760Z,95.33
2023-03-06T09:14:57.443Z,94.77
2023-03-06T09:17:24.094Z,95.15
2023-03-06T09:19:52.196Z,94.90
2023-03-06T09:22:18.794Z,94.51
2023-03-06T09:24:45.302Z,93.41
2023-03-06T09:27:11.827Z,93.37
2023-03-06T09:29:38.321Z,93.02
2023-03-06T09:32:05.050Z,93.33
2023-03-06T09:34:31.595Z,93.43
2023-03-06T09:36:58.078Z,92.56
2023-03-06T09:39:26.473Z,91.70
2023-03-06T09:41:53.788Z,90.91
2023-03-06T09:44:25.936Z,91.57
2023-03-06T09:47:19.992Z,92.05
2023-03-06T09:50:13.500Z,91.81
2023-03-06T09:52:52.754Z,91.53
2023-03-06T09:55:28.794Z,91.29
2023-03-06T09:58:13.257Z,91.09
2023-03-06T10:00:44.275Z,91.12
2023-03-06T10:03:44.845Z,90.93
2023-03-06T10:06:22.714Z,90.84
2023-03-06T10:08:55.286Z,92.04
2023-03-06T10:11:52.672Z,92.31
2023-03-06T10:14:31.811Z,92.14
2023-03-06T10:16:58.617Z,91.14
2023-03-06T10:19:33.416Z,91.87
2023-03-06T10:22:24.768Z,93.03
2023-03-06T10:25:16.089Z,91.86
2023-03-06T10:27:56.147Z,92.64
2023-03-06T10:31:02.665Z,93.34
2023-03-06T10:33:44.698Z,93.10
2023-03-06T10:36:15.948Z,92.51
2023-03-06T10:38:44.134Z,91.67
2023-03-06T10:41:10.628Z,92.06
2023-03-06T10:43:42.350Z,92.12
2023-03-06T10:46:14.552Z,90.98
2023-03-06T10:48:42.503Z,90.53
2023-03-06T10:51:19.043Z,90.07
2023-03-06T10:53:54.910Z,89.81
2023-03-06T10:56:34.183Z,89.39
2023-03-06T10:59:11.718Z,89.74
2023-03-06T11:01:39.994Z,88.59
2023-03-06T11:04:26.832Z,87.45
2023-03-06T11:07:17.096Z,87.37
2023-03-06T11:09:56.694Z,86.94
2023-03-06T11:12:25.865Z,86.33
2023-03-06T11:15:14.393Z,86.77
2023-03-06T11:18:04.297Z,86.81
2023-03-06T11:20:51.067Z,86.15
2023-03-06T11:23:18.312Z,86.14
2023-03-06T11:25:50.174Z,86.33
2023-03-06T11:28:25.595Z,85.90
2023-03-06T11:31:20.428Z,85.99
2023-03-06T11:33:56.379Z,85.04
2023-03-06T11:37:00.420Z,86.00
2023-03-06T11:39:41.810Z,85.23
2023-03-06T11:42:17.536Z,85.34
2023-03-06T11:44:50.111Z,84.89
2023-03-06T11:47:18.870Z,84.09
2023-03-06T11:49:50.465Z,83.34
2023-03-06T11:52:26.084Z,83.91
2023-03-06T11:54:57.671Z,83.91
2023-03-06T11:57:37.402Z,84.27
2023-03-06T12:00:16.945Z,83.48
2023-03-06T12:03:12.173Z,82.60
2023-03-06T12:05:53.342Z,81.24
2023-03-06T12:08:47.155Z,81.24
2023-03-06T12:11:22.904Z,80.92
2023-03-06T12:14:05.995Z,80.67
2023-03-06T12:16:46.115Z,80.84
2023-03-06T12:19:36.519Z,79.78
2023-03-06T12:22:20.711Z,79.62
2023-03-06T12:24:59.326Z,79.48
2023-03-06T12:27:58.163Z,78.73
2023-03-06T12:31:02.608Z,78.20
2023-03-06T12:34:06.874Z,77.91
2023-03-06T12:36:50.501Z,78.19
2023-03-06T12:39:20.646Z,76.26
2023-03-06T12:42:22.679Z,76.88
2023-03-06T12:45:27.152Z,76.49
2023-03-06T12:47:56.797Z,76.15
2023-03-06T12:50:32.835Z,76.26
2023-03-06T12:53:04.269Z,76.12
2023-03-06T12:55:40.988Z,76.81
2023-03-06T12:58:29.094Z,76.45
2023-03-06T13:01:04.224Z,74.86
2023-03-06T13:03:52.199Z,74.78
2023-03-06T13:06:49.849Z,74.58
2023-03-06T13:09:52.333Z,74.03
2023-03-06T13:12:38.354Z,73.92
2023-03-06T13:15:45.644Z,74.30
2023-03-06T13:18:24.043Z,73.99
2023-03-06T13:20:57.451Z,74.07
2023-03-06T13:23:51.510Z,74.29
2023-03-06T13:26:24.045Z,75.88
2023-03-06T13:28:54.009Z,77.02
2023-03-06T13:31:27.936Z,79.09
2023-03-06T13:33:57.107Z,80.07
2023-03-06T13:36:31.736Z,80.74
2023-03-06T13:39:08.657Z,81.09
2023-03-06T13:41:37.507Z,80.46
2023-03-06T13:44:26.091Z,79.93
2023-03-06T13:47:01.414Z,79.02
2023-03-06T13:49:29.309Z,78.38
2023-03-06T13:52:04.967Z,79.71
2023-03-06T13:55:00.556Z,79.49
2023-03-06T13:57:57.491Z,77.96
2023-03-06T14:00:52.451Z,78.19
2023-03-06T14:03:28.266Z,77.74
2023-03-06T14:05:54.962Z,77.32
2023-03-06T14:08:27.791Z,77.45
2023-03-06T14:11:27.106Z,76.45
2023-03-06T14:13:56.626Z,77.13
2023-03-06T14:16:49.370Z,76.12
2023-03-06T14:19:18.648Z,75.66
2023-03-06T14:21:45.121Z,74.93
2023-03-06T14:24:17.445Z,75.58
2023-03-06T14:26:50.152Z,75.33
2023-03-06T14:29:22.349Z,74.88
2023-03-06T14:31:51.500Z,75.24
2023-03-06T14:34:22.844Z,74.52
2023-03-06T14:36:52.678Z,74.88
2023-03-06T14:39:25.182Z,73.97
2023-03-06T14:41:51.725Z,74.58
2023-03-06T14:44:24.038Z,72.25
2023-03-06T14:47:10.806Z,72.44
2023-03-06T14:49:37.372Z,71.79
2023-03-06T14:52:04.161Z,72.00
2023-03-06T14:54:36.972Z,71.87
2023-03-06T14:57:08.226Z,70.99
2023-03-06T14:59:52.412Z,72.45
2023-03-06T15:02:25.820Z,72.18
2023-03-06T15:04:57.337Z,72.58
2023-03-06T15:07:30.250Z,73.06
2023-03-06T15:09:57.924Z,74.42
2023-03-06T15:12:24.326Z,74.05
2023-03-06T15:15:07.973Z,75.02
2023-03-06T15:17:43.770Z,74.79
2023-03-06T15:20:52.697Z,75.59
2023-03-06T15:23:33.947Z,75.69
2023-03-06T15:26:13.990Z,75.57
2023-03-06T15:28:40.613Z,74.87
2023-03-06T15:31:10.306Z,75.31
2023-03-06T15:33:37.572Z,75.24
2023-03-06T15:36:06.223Z,75.62
2023-03-06T15:38:35.834Z,74.64
2023-03-06T15:41:04.065Z,73.97
2023-03-06T15:43:40.190Z,74.13
2023-03-06T15:46:07.566Z,73.66
2023-03-06T15:48:35.386Z,74.58
2023-03-06T15:51:02.849Z,74.43
2023-03-06T15:53:29.495Z,74.91
2023-03-06T15:55:57.762Z,73.60
2023-03-06T15:58:26.773Z,73.54
2023-03-06T16:00:53.451Z,74.11
2023-03-06T16:03:20.106Z,74.71
2023-03-06T16:05:46.623Z,75.15
2023-03-06T16:08:14.933Z,75.93
2023-03-06T16:10:43.798Z,76.29
2023-03-06T16:13:15.022Z,76.79
2023-03-06T16:15:50.003Z,76.46
2023-03-06T16:18:17.377Z,73.55
2023-03-06T16:20:44.117Z,72.51
2023-03-06T16:23:10.911Z,73.02
2023-03-06T16:25:39.794Z,72.79
2023-03-06T16:28:11.540Z,73.76
2023-03-06T16:30:38.434Z,72.26
2023-03-06T16:33:05.083Z,70.35
2023-03-06T16:35:31.936Z,70.89
2023-03-06T16:37:59.815Z,70.49
2023-03-06T16:40:37.251Z,69.19
2023-03-06T16:43:05.175Z,68.44
2023-03-06T16:45:39.090Z,68.61
2023-03-06T16:48:06.647Z,68.39
2023-03-06T16:50:38.361Z,68.56
2023-03-06T16:53:05.761Z,67.10
2023-03-06T16:55:33.054Z,66.22
2023-03-06T16:57:59.695Z,66.30
2023-03-06T17:00:31.159Z,66.50
2023-03-06T17:02:57.800Z,66.87
2023-03-06T17:05:24.310Z,66.60
2023-03-06T17:07:50.843Z,66.59
2023-03-06T17:10:19.171Z,67.03
2023-03-06T17:12:45.736Z,67.90
2023-03-06T17:15:12.296Z,68.44
2023-03-06T17:17:38.944Z,69.89
2023-03-06T17:20:11.704Z,70.53
2023-03-06T17:22:38.716Z,70.96
2023-03-06T17:25:06.776Z,70.71
2023-03-06T17:27:34.473Z,71.66
2023-03-06T17:30:01.355Z,72.26
2023-03-06T17:32:28.443Z,72.53
2023-03-06T17:34:55.406Z,72.10
2023-03-06T17:37:22.022Z,73.02
2023-03-06T17:39:48.594Z,73.60
2023-03-06T17:42:15.522Z,74.10
2023-03-06T17:44:42.112Z,73.50
2023-03-06T17:47:08.676Z,73.17
2023-03-06T17:49:35.284Z,74.00
2023-03-06T17:52:03.558Z,72.94
2023-03-06T17:54:30.294Z,73.68
2023-03-06T17:57:00.865Z,73.49
2023-03-06T17:59:28.317Z,73.47
2023-03-06T18:01:58.831Z,73.93
2023-03-06T18:04:26.029Z,73.12
2023-03-06T18:06:52.750Z,73.98
2023-03-06T18:09:19.289Z,73.56
2023-03-06T18:11:45.818Z,72.98
2023-03-06T18:14:12.440Z,72.80
2023-03-06T18:16:39.019Z,73.09
2023-03-06T18:19:05.517Z,73.29
2023-03-06T18:21:32.057Z,73.61
2023-03-06T18:23:58.598Z,73.55
2023-03-06T18:26:27.548Z,73.41
2023-03-06T18:28:56.541Z,73.97
2023-03-06T18:31:25.763Z,74.15
2023-03-06T18:33:53.288Z,73.77
2023-03-06T18:36:22.364Z,74.39
2023-03-06T18:38:49.869Z,74.50
2023-03-06T18:41:18.564Z,74.04
2023-03-06T18:43:45.530Z,73.23
2023-03-06T18:46:12.029Z,73.75
2023-03-06T18:48:38.642Z,73.35
2023-03-06T18:51:07.801Z,73.08
2023-03-06T18:53:35.431Z,73.03
2023-03-06T18:56:02.443Z,73.47
2023-03-06T18:58:29.532Z,73.21
2023-03-06T19:00:58.926Z,72.84
2023-03-06T19:03:25.818Z,73.01
2023-03-06T19:05:52.405Z,73.41
2023-03-06T19:08:19.049Z,73.26
2023-03-06T19:10:46.894Z,73.27
2023-03-06T19:13:13.890Z,73.06
2023-03-06T19:15:48.534Z,73.08
2023-03-06T19:18:17.868Z,73.38
2023-03-06T19:20:45.026Z,73.94
2023-03-06T19:23:11.594Z,74.38
2023-03-06T19:25:38.096Z,75.30
2023-03-06T19:28:04.795Z,76.32
2023-03-06T19:30:31.269Z,76.92
2023-03-06T19:32:57.840Z,77.42
2023-03-06T19:35:26.179Z,78.35
2023-03-06T19:37:53.398Z,78.54
2023-03-06T19:40:20.250Z,79.20
2023-03-06T19:42:46.845Z,79.96
2023-03-06T19:45:13.489Z,80.66
2023-03-06T19:47:40.072Z,81.44
2023-03-06T19:50:07.221Z,81.86
2023-03-06T19:52:36.344Z,82.79
2023-03-06T19:55:02.907Z,82.87
2023-03-06T19:57:29.415Z,83.86
2023-03-06T19:59:58.415Z,84.31
2023-03-06T20:02:27.132Z,84.40
2023-03-06T20:04:54.433Z,84.73
2023-03-06T20:07:21.272Z,85.05
2023-03-06T20:09:48.197Z,85.57
2023-03-06T20:12:15.728Z,86.70
2023-03-06T20:14:42.575Z,86.40
2023-03-06T20:17:09.186Z,86.84
2023-03-06T20:19:36.446Z,86.95
2023-03-06T20:22:03.297Z,87.55
2023-03-06T20:24:29.833Z,87.71
2023-03-06T20:26:57.668Z,87.79
2023-03-06T20:29:27.291Z,88.72
2023-03-06T20:31:55.920Z,88.83
2023-03-06T20:34:23.474Z,89.11
2023-03-06T20:36:50.163Z,89.69
2023-03-06T20:39:18.859Z,90.18
2023-03-06T20:41:46.414Z,90.20
2023-03-06T20:44:16.144Z,91.13
2023-03-06T20:46:44.055Z,91.09
2023-03-06T20:49:12.577Z,91.40
2023-03-06T20:51:40.358Z,91.41
2023-03-06T20:54:08.475Z,91.54
2023-03-06T20:56:36.512Z,92.33
2023-03-06T20:59:03.288Z,92.44
2023-03-06T21:01:32.664Z,93.24
2023-03-06T21:04:00.436Z,94.18
2023-03-06T21:06:28.734Z,94.59
2023-03-06T21:08:56.731Z,94.89
2023-03-06T21:11:23.742Z,95.25
2023-03-06T21:13:50.477Z,95.16
2023-03-06T21:16:19.464Z,95.65
2023-03-06T21:18:46.729Z,95.84
2023-03-06T21:21:16.736Z,96.70
2023-03-06T21:23:43.291Z,96.62
2023-03-06T21:26:24.218Z,96.90
2023-03-06T21:28:51.278Z,96.66
2023-03-06T21:31:20.450Z,97.04
2023-03-06T21:33:48.600Z,96.97
2023-03-06T21:36:18.727Z,97.29
2023-03-06T21:38:46.707Z,97.76
2023-03-06T21:41:16.390Z,98.07
2023-03-06T21:43:43.387Z,98.16
2023-03-06T21:46:11.226Z,98.16
2023-03-06T21:48:37.937Z,98.52
2023-03-06T21:51:09.930Z,98.91
2023-03-06T21:53:37.075Z,99.24
2023-03-06T21:56:04.675Z,99.44
2023-03-06T21:58:31.305Z,99.14
2023-03-06T22:00:58.399Z,99.29
2023-03-06T22:03:25.514Z,100.00
2023-03-06T22:05:52.705Z,100.00
2023-03-06T22:08:24.993Z,100.00
2023-03-06T22:10:51.560Z,100.00
2023-03-06T22:13:18.127Z,100.00
2023-03-06T22:15:52.753Z,100.00
2023-03-06T22:18:20.066Z,99.51
2023-03-06T22:20:47.246Z,99.87
2023-03-06T22:23:14.281Z,99.87
2023-03-06T22:25:40.840Z,99.40
2023-03-06T22:28:07.661Z,99.62
2023-03-06T22:30:34.279Z,99.25
2023-03-06T22:33:00.833Z,99.49
2023-03-06T22:35:27.408Z,99.46
2023-03-06T22:37:53.978Z,99.36
2023-03-06T22:40:20.493Z,99.39
2023-03-06T22:42:47.169Z,99.55
2023-03-06T22:45:13.754Z,99.74
2023-03-06T22:47:40.272Z,99.81
2023-03-06T22:50:07.793Z,100.00
2023-03-06T22:52:34.359Z,100.00
2023-03-06T22:55:00.922Z,100.00
2023-03-06T22:57:27.559Z,100.00
2023-03-06T22:59:54.033Z,100.00
2023-03-06T23:02:20.539Z,100.00
2023-03-06T23:04:53.516Z,100.00
2023-03-06T23:07:21.120Z,100.00
2023-03-06T23:09:48.660Z,100.00
2023-03-06T23:12:33.827Z,100.00
2023-03-06T23:15:19.162Z,100.00
2023-03-06T23:18:04.452Z,100.00
2023-03-06T23:20:49.757Z,100.00
2023-03-06T23:23:35.863Z,100.00
2023-03-06T23:26:04.270Z,100.00
2023-03-06T23:28:31.021Z,100.00
2023-03-06T23:30:57.585Z,100.00
2023-03-06T23:33:24.442Z,100.00
2023-03-06T23:35:51.035Z,100.00
2023-03-06T23:38:17.614Z,100.00
2023-03-06T23:40:44.264Z,100.00
2023-03-06T23:43:10.818Z,100.00
2023-03-06T23:45:37.409Z,100.00
2023-03-06T23:48:07.242Z,100.00
2023-03-06T23:50:33.763Z,100.00
2023-03-06T23:53:00.251Z,100.00
2023-03-06T23:55:26.821Z,100.00
2023-03-06T23:57:53.333Z,100.00
